Time;durP1;ratioP1;P1;durP2;ratioP2;P2;SDS_P1;SDS_P2;PMS_P1;PMS_P2;Temp;Humidity;BMP_temperature;BMP_pressure;BME280_temperature;BME280_humidity;BME280_pressure;Samples;Min_cycle;Max_cycle;Signal;HPM_P1;HPM_P2
2022/12/06 00:00:05;;;;;;;19.80;10.75;;;;;;;2.12;100.00;99286.59;5083114;28;20127;-81
2022/12/06 00:02:32;;;;;;;25.20;11.27;;;;;;;2.18;100.00;99295.94;5084202;28;20148;-81
2022/12/06 00:05:00;;;;;;;19.58;9.45;;;;;;;2.24;100.00;99287.41;5085065;28;20145;-81
2022/12/06 00:07:27;;;;;;;19.83;10.77;;;;;;;2.18;100.00;99285.22;5080980;28;20426;-80
2022/12/06 00:09:53;;;;;;;18.92;9.50;;;;;;;2.14;100.00;99294.50;5078912;28;20077;-79
2022/12/06 00:12:21;;;;;;;22.52;8.77;;;;;;;2.10;100.00;99274.28;5079997;28;20153;-80
2022/12/06 00:14:48;;;;;;;16.63;9.85;;;;;;;2.18;100.00;99289.72;5080769;28;20079;-80
2022/12/06 00:17:14;;;;;;;19.33;9.90;;;;;;;2.01;100.00;99278.56;5083033;28;20066;-80
2022/12/06 00:19:41;;;;;;;19.00;9.90;;;;;;;2.06;100.00;99276.38;5083895;28;20084;-80
2022/12/06 00:22:08;;;;;;;17.00;9.30;;;;;;;2.02;100.00;99271.38;5081322;28;20078;-80
2022/12/06 00:24:35;;;;;;;20.38;10.65;;;;;;;2.07;100.00;99277.22;5074626;28;20131;-79
2022/12/06 00:27:01;;;;;;;25.80;10.50;;;;;;;2.11;100.00;99265.28;5080504;28;20694;-79
2022/12/06 00:29:29;;;;;;;22.95;10.88;;;;;;;2.07;100.00;99271.88;5085367;28;20270;-79
2022/12/06 00:31:59;;;;;;;21.15;10.57;;;;;;;2.20;100.00;99285.94;5084846;28;20117;-78
2022/12/06 00:34:25;;;;;;;20.90;10.98;;;;;;;2.12;100.00;99275.88;5082411;28;20143;-79
2022/12/06 00:36:52;;;;;;;18.00;9.27;;;;;;;1.90;100.00;99258.03;5084969;28;20058;-79
2022/12/06 00:39:19;;;;;;;18.63;9.82;;;;;;;1.88;100.00;99256.44;5087959;28;20048;-79
2022/12/06 00:41:46;;;;;;;21.02;9.88;;;;;;;1.82;100.00;99254.28;5082983;28;20052;-78
2022/12/06 00:44:13;;;;;;;22.02;10.35;;;;;;;2.00;100.00;99281.38;5086371;28;20114;-79
2022/12/06 00:46:41;;;;;;;18.20;8.93;;;;;;;1.97;100.00;99273.59;5087569;28;20087;-79
2022/12/06 00:49:08;;;;;;;20.17;9.88;;;;;;;1.94;100.00;99261.28;5085540;28;20127;-79
2022/12/06 00:51:37;;;;;;;17.65;9.02;;;;;;;2.00;100.00;99287.59;5087669;28;20487;-79
2022/12/06 00:54:04;;;;;;;15.40;7.90;;;;;;;1.97;100.00;99292.38;5082182;28;20470;-79
2022/12/06 00:56:31;;;;;;;19.48;8.80;;;;;;;1.75;100.00;99270.03;5083280;28;20044;-79
2022/12/06 00:58:58;;;;;;;16.35;8.90;;;;;;;1.73;100.00;99261.22;5086578;28;20059;-78
2022/12/06 01:01:27;;;;;;;17.73;9.20;;;;;;;1.71;100.00;99256.00;5087779;28;20044;-79
2022/12/06 01:03:57;;;;;;;20.73;9.85;;;;;;;1.69;100.00;99262.50;5084306;28;20072;-79
2022/12/06 01:06:26;;;;;;;;;;;;;;;1.90;100.00;99278.63;5088511;28;20136;-79
2022/12/06 01:08:54;;;;;;;20.83;9.40;;;;;;;1.85;100.00;99267.41;5083662;28;19920;-79
2022/12/06 01:11:22;;;;;;;20.10;9.98;;;;;;;1.93;100.00;99273.00;5085370;28;20464;-79
2022/12/06 01:13:49;;;;;;;18.40;9.10;;;;;;;1.89;100.00;99272.41;5085779;28;20050;-79
2022/12/06 01:16:17;;;;;;;17.83;9.07;;;;;;;1.84;100.00;99263.91;5087167;28;20048;-81
2022/12/06 01:18:45;;;;;;;15.45;8.75;;;;;;;1.71;100.00;99265.88;5088074;28;20088;-80
2022/12/06 01:21:17;;;;;;;16.15;7.78;;;;;;;1.62;100.00;99258.59;5085857;28;20047;-80
2022/12/06 01:23:44;;;;;;;16.85;8.98;;;;;;;1.61;100.00;99255.06;5085622;28;20377;-80
2022/12/06 01:26:15;;;;;;;18.65;9.50;;;;;;;1.87;100.00;99289.63;5084743;28;20572;-80
2022/12/06 01:28:42;;;;;;;21.98;10.45;;;;;;;1.62;100.00;99262.13;5086532;28;20055;-80
2022/12/06 01:31:09;;;;;;;17.40;9.75;;;;;;;1.63;100.00;99245.06;5085639;28;20054;-80
2022/12/06 01:33:35;;;;;;;18.65;10.43;;;;;;;1.82;100.00;99265.00;5085080;28;20407;-80
2022/12/06 01:36:03;;;;;;;19.05;9.65;;;;;;;1.87;100.00;99274.38;5087752;28;20454;-80
2022/12/06 01:38:31;;;;;;;18.90;9.90;;;;;;;1.91;100.00;99258.88;5086153;28;20580;-80
2022/12/06 01:40:58;;;;;;;19.55;9.68;;;;;;;1.82;100.00;99265.84;5086827;28;20058;-80
2022/12/06 01:43:37;;;;;;;22.17;9.10;;;;;;;1.78;100.00;99240.28;5082135;28;20047;-79
2022/12/06 01:46:17;;;;;;;21.48;10.15;;;;;;;1.83;100.00;99258.66;5082734;28;20044;-80
2022/12/06 01:48:44;;;;;;;15.38;8.60;;;;;;;1.81;100.00;99261.47;5085566;28;20139;-80
2022/12/06 01:51:13;;;;;;;18.65;9.90;;;;;;;1.73;100.00;99237.13;5084700;28;20044;-80
2022/12/06 01:53:43;;;;;;;21.10;9.73;;;;;;;1.70;100.00;99240.06;5082071;28;20153;-80
2022/12/06 01:56:10;;;;;;;22.23;11.07;;;;;;;1.82;100.00;99262.31;5084022;28;20411;-80
2022/12/06 01:58:40;;;;;;;16.73;9.27;;;;;;;1.77;100.00;99255.50;5084330;28;20741;-80
2022/12/06 02:01:07;;;;;;;15.90;9.68;;;;;;;1.75;100.00;99233.34;5081887;28;20043;-80
2022/12/06 02:03:34;;;;;;;19.10;8.50;;;;;;;1.86;100.00;99255.72;5084352;28;20040;-80
2022/12/06 02:06:03;;;;;;;18.65;9.98;;;;;;;1.75;100.00;99238.69;5082306;28;20075;-80
2022/12/06 02:08:31;;;;;;;17.00;9.20;;;;;;;1.83;100.00;99251.47;5083859;28;20134;-80
2022/12/06 02:11:01;;;;;;;16.17;9.25;;;;;;;1.91;100.00;99262.41;5083052;28;20040;-80
2022/12/06 02:13:30;;;;;;;19.10;10.20;;;;;;;2.01;100.00;99257.13;5084626;28;20040;-80
2022/12/06 02:16:06;;;;;;;21.10;10.98;;;;;;;1.91;100.00;99232.06;5084395;28;20465;-79
2022/12/06 02:18:38;;;;;;;20.73;9.35;;;;;;;1.85;100.00;99225.41;5081622;28;20044;-80
2022/12/06 02:21:16;;;;;;;19.05;10.38;;;;;;;1.89;100.00;99232.19;5085573;28;20040;-80
2022/12/06 02:24:15;;;;;;;15.13;8.93;;;;;;;2.00;100.00;99250.06;5082998;28;20485;-80
2022/12/06 02:26:45;;;;;;;17.38;8.98;;;;;;;1.86;100.00;99229.75;5085646;28;20058;-80
2022/12/06 02:29:43;;;;;;;21.25;9.13;;;;;;;2.07;100.00;99247.72;5086469;28;20051;-80
2022/12/06 02:32:16;;;;;;;20.25;9.35;;;;;;;1.95;100.00;99236.19;5083449;28;20076;-80
2022/12/06 02:34:46;;;;;;;18.15;8.95;;;;;;;2.04;100.00;99239.94;5085752;28;20572;-80
2022/12/06 02:37:17;;;;;;;18.55;9.50;;;;;;;1.97;100.00;99225.34;5085601;28;20048;-81
2022/12/06 02:39:49;;;;;;;17.55;9.48;;;;;;;2.02;100.00;99237.38;5085087;28;20044;-79
2022/12/06 02:42:20;;;;;;;19.98;10.00;;;;;;;1.87;100.00;99212.72;5081714;28;20060;-80
2022/12/06 02:44:51;;;;;;;16.85;8.75;;;;;;;1.94;100.00;99221.94;5083139;28;20150;-80
2022/12/06 02:47:23;;;;;;;19.50;8.57;;;;;;;2.07;100.00;99234.31;5086468;28;20498;-79
2022/12/06 02:49:53;;;;;;;17.77;10.27;;;;;;;2.02;100.00;99228.47;5079769;28;20058;-79
2022/12/06 02:52:24;;;;;;;13.52;8.13;;;;;;;2.03;100.00;99236.41;5080614;28;20055;-79
2022/12/06 02:54:53;;;;;;;16.60;8.70;;;;;;;2.01;100.00;99232.16;5083364;28;20464;-80
2022/12/06 02:57:27;;;;;;;19.77;8.70;;;;;;;2.03;100.00;99241.78;5083718;28;20044;-79
2022/12/06 02:59:54;;;;;;;12.85;8.23;;;;;;;2.04;100.00;99224.69;5082704;28;20570;-80
2022/12/06 03:02:24;;;;;;;18.67;9.23;;;;;;;2.03;100.00;99232.88;5083404;28;20052;-79
2022/12/06 03:05:09;;;;;;;16.80;8.82;;;;;;;1.99;100.00;99202.78;5082918;28;20047;-79
2022/12/06 03:07:42;;;;;;;15.27;8.50;;;;;;;1.99;100.00;99216.19;5082693;28;20073;-79
2022/12/06 03:10:30;;;;;;;19.95;10.23;;;;;;;2.12;100.00;99218.69;5082767;28;20047;-79
2022/12/06 03:13:08;;;;;;;18.95;8.75;;;;;;;2.01;100.00;99214.22;5082658;28;20431;-80
2022/12/06 03:15:46;;;;;;;18.15;8.98;;;;;;;2.09;100.00;99224.31;5084158;28;20381;-79
2022/12/06 03:18:19;;;;;;;14.82;8.65;;;;;;;2.10;100.00;99213.44;5084543;28;20063;-80
2022/12/06 03:20:51;;;;;;;18.63;8.70;;;;;;;2.07;100.00;99212.88;5085516;28;20051;-80
2022/12/06 03:23:24;;;;;;;14.50;8.93;;;;;;;2.12;100.00;99222.22;5084057;28;20462;-79
2022/12/06 03:25:52;;;;;;;17.63;9.43;;;;;;;2.02;100.00;99197.16;5084288;28;20055;-80
2022/12/06 03:28:21;;;;;;;18.80;9.57;;;;;;;2.13;100.00;99210.50;5081851;28;20060;-79
2022/12/06 03:31:00;;;;;;;18.63;9.67;;;;;;;2.08;100.00;99190.44;5086441;28;20388;-79
2022/12/06 03:33:33;;;;;;;16.53;9.43;;;;;;;2.12;100.00;99208.81;5091206;28;20051;-79
2022/12/06 03:36:01;;;;;;;22.40;9.27;;;;;;;2.14;100.00;99211.38;5088583;28;20306;-79
2022/12/06 03:38:32;;;;;;;16.30;8.95;;;;;;;2.19;100.00;99211.81;5091072;28;20056;-79
2022/12/06 03:41:03;;;;;;;16.33;9.55;;;;;;;2.03;100.00;99182.78;5089194;28;20089;-79
2022/12/06 03:43:29;;;;;;;17.83;9.65;;;;;;;2.02;100.00;99182.88;5073187;28;20040;-79
2022/12/06 03:46:03;;;;;;;15.75;9.35;;;;;;;2.20;100.00;99201.94;5071042;28;20403;-79
2022/12/06 03:48:35;;;;;;;20.30;10.35;;;;;;;2.19;100.00;99198.41;5081426;28;20087;-79
2022/12/06 03:51:06;;;;;;;19.08;9.93;;;;;;;2.33;100.00;99212.47;5080533;28;20050;-79
2022/12/06 03:53:33;;;;;;;17.83;9.95;;;;;;;2.35;100.00;99191.72;5090304;28;20062;-79
2022/12/06 03:56:00;;;;;;;14.75;9.02;;;;;;;2.30;100.00;99189.44;5092377;28;20058;-79
2022/12/06 03:58:26;;;;;;;19.42;9.75;;;;;;;2.10;100.00;99172.38;5082829;28;20058;-79
2022/12/06 04:00:53;;;;;;;20.35;10.30;;;;;;;2.18;100.00;99193.19;5091239;28;20054;-79
2022/12/06 04:03:19;;;;;;;17.45;9.27;;;;;;;2.19;100.00;99195.72;5088593;28;20054;-79
2022/12/06 04:05:47;;;;;;;16.88;8.68;;;;;;;2.12;100.00;99181.13;5088768;28;20052;-79
2022/12/06 04:08:14;;;;;;;15.93;8.82;;;;;;;2.08;100.00;99182.41;5088617;28;20066;-79
2022/12/06 04:10:40;;;;;;;17.45;8.82;;;;;;;2.05;100.00;99182.66;5091978;28;20048;-79
2022/12/06 04:13:08;;;;;;;15.40;9.05;;;;;;;2.07;100.00;99176.16;5086141;28;20044;-79
2022/12/06 04:15:36;;;;;;;19.52;10.00;;;;;;;2.24;100.00;99180.09;5095738;28;20484;-79
2022/12/06 04:18:12;;;;;;;23.20;10.43;;;;;;;2.15;100.00;99162.09;5095567;28;20355;-79
2022/12/06 04:23:31;;;;;;;18.45;9.80;;;;;;;2.11;100.00;99149.94;5086510;28;20063;-79
2022/12/06 04:25:58;;;;;;;18.00;10.15;;;;;;;2.13;100.00;99164.06;5080217;28;20050;-79
2022/12/06 04:39:24;;;;;;;18.90;10.25;;;;;;;2.10;100.00;99161.66;5092692;28;20070;-80
2022/12/06 04:44:35;;;;;;;16.63;8.82;;;;;;;2.08;100.00;99151.06;5093578;28;20063;-80
2022/12/06 04:47:02;;;;;;;20.75;8.95;;;;;;;2.21;100.00;99156.19;5090261;28;20109;-80
2022/12/06 04:49:29;;;;;;;16.52;10.60;;;;;;;2.23;100.00;99156.06;5092408;28;20380;-80
2022/12/06 04:51:56;;;;;;;13.45;8.25;;;;;;;2.29;100.00;99147.50;5082038;28;20268;-80
2022/12/06 04:54:24;;;;;;;16.33;9.35;;;;;;;2.23;100.00;99131.91;5090903;28;20501;-79
2022/12/06 04:56:51;;;;;;;17.75;9.43;;;;;;;2.28;100.00;99145.81;5093279;28;20048;-80
2022/12/06 04:59:18;;;;;;;17.25;9.38;;;;;;;2.32;100.00;99147.25;5083945;28;20056;-80
2022/12/06 05:01:44;;;;;;;17.38;9.73;;;;;;;2.34;100.00;99150.63;5091726;28;20032;-80
2022/12/06 05:04:12;;;;;;;19.67;10.02;;;;;;;2.22;100.00;99133.75;5086268;28;20158;-80
2022/12/06 05:06:39;;;;;;;18.13;9.48;;;;;;;2.17;100.00;99146.72;5092610;28;20040;-80
2022/12/06 05:09:05;;;;;;;19.25;8.98;;;;;;;2.12;100.00;99131.03;5093538;28;20052;-80
2022/12/06 05:11:34;;;;;;;21.30;9.45;;;;;;;2.10;100.00;99124.94;5093058;28;20403;-80
2022/12/06 05:14:00;;;;;;;20.13;9.32;;;;;;;2.20;100.00;99141.09;5090581;28;20134;-80
2022/12/06 05:16:27;;;;;;;14.35;8.70;;;;;;;2.22;100.00;99146.34;5090467;28;20044;-80
2022/12/06 05:18:54;;;;;;;18.75;9.73;;;;;;;2.29;100.00;99158.25;5088934;28;20444;-80
2022/12/06 05:21:22;;;;;;;15.80;9.27;;;;;;;2.21;100.00;99144.63;5092414;28;20052;-80
2022/12/06 05:23:52;;;;;;;15.43;8.95;;;;;;;2.30;100.00;99165.28;5088330;28;20051;-77
2022/12/06 05:26:21;;;;;;;19.50;9.45;;;;;;;2.30;100.00;99160.78;5092401;28;20468;-79
2022/12/06 05:28:49;;;;;;;17.48;9.27;;;;;;;2.29;100.00;99152.88;5092416;28;20078;-80
2022/12/06 05:31:20;;;;;;;17.98;10.38;;;;;;;2.32;100.00;99147.25;5081193;28;20050;-88
2022/12/06 05:33:48;;;;;;;16.85;9.18;;;;;;;2.23;100.00;99134.59;5098638;28;20046;-88
2022/12/06 05:36:17;;;;;;;17.13;9.52;;;;;;;2.30;100.00;99125.03;5076776;28;20063;-80
2022/12/06 05:38:44;;;;;;;14.15;8.75;;;;;;;2.43;100.00;99144.47;5092430;28;20056;-80
2022/12/06 05:41:12;;;;;;;18.42;9.95;;;;;;;2.26;100.00;99126.31;5090385;28;20047;-81
2022/12/06 05:43:38;;;;;;;17.73;8.68;;;;;;;2.27;100.00;99125.31;5087357;28;20063;-81
2022/12/06 05:46:07;;;;;;;18.15;10.30;;;;;;;2.45;100.00;99152.38;5082696;28;20492;-81
2022/12/06 05:48:33;;;;;;;19.35;10.88;;;;;;;2.44;100.00;99140.81;5091526;28;20040;-81
2022/12/06 05:51:00;;;;;;;20.85;11.55;;;;;;;2.39;100.00;99145.72;5091694;28;20134;-81
2022/12/06 05:53:27;;;;;;;20.52;11.35;;;;;;;2.35;100.00;99140.75;5083043;28;20059;-80
2022/12/06 05:55:53;;;;;;;19.20;9.95;;;;;;;2.33;100.00;99140.88;5086269;28;20068;-81
2022/12/06 05:58:20;;;;;;;26.42;10.35;;;;;;;2.44;100.00;99156.91;5091124;28;20050;-80
2022/12/06 06:00:47;;;;;;;17.83;9.93;;;;;;;2.36;100.00;99142.47;5084196;28;20053;-80
2022/12/06 06:03:16;;;;;;;17.92;9.15;;;;;;;2.55;100.00;99166.72;5090908;28;20052;-81
2022/12/06 06:05:50;;;;;;;17.02;10.10;;;;;;;2.59;100.00;99159.22;5089545;28;20282;-80
2022/12/06 06:08:16;;;;;;;24.08;9.88;;;;;;;2.34;100.00;99131.84;5091121;28;20048;-80
2022/12/06 06:10:44;;;;;;;18.75;9.98;;;;;;;2.34;100.00;99152.47;5082479;28;20055;-81
2022/12/06 06:13:13;;;;;;;14.70;9.35;;;;;;;2.43;100.00;99146.31;5076741;28;20179;-80
2022/12/06 06:15:41;;;;;;;19.48;9.68;;;;;;;2.42;100.00;99148.13;5081788;28;20407;-80
2022/12/06 06:18:07;;;;;;;17.55;9.55;;;;;;;2.46;100.00;99151.41;5077444;28;20059;-81
2022/12/06 06:20:36;;;;;;;20.05;9.70;;;;;;;2.46;100.00;99164.81;5078417;28;20035;-81
2022/12/06 06:23:02;;;;;;;16.33;9.55;;;;;;;2.47;100.00;99162.00;5076528;28;20051;-80
2022/12/06 06:25:29;;;;;;;18.30;9.27;;;;;;;2.40;100.00;99141.22;5076803;28;20067;-80
2022/12/06 06:27:56;;;;;;;18.65;9.98;;;;;;;2.39;100.00;99140.34;5073243;28;20573;-81
2022/12/06 06:30:23;;;;;;;18.27;9.73;;;;;;;2.54;100.00;99148.06;5076905;28;20052;-80
2022/12/06 06:32:50;;;;;;;17.35;10.02;;;;;;;2.39;100.00;99126.94;5074925;28;20661;-80
2022/12/06 06:35:16;;;;;;;19.55;9.93;;;;;;;2.52;100.00;99152.72;5075512;28;20055;-81
2022/12/06 06:37:44;;;;;;;16.67;9.07;;;;;;;2.47;100.00;99140.53;5078867;28;20052;-81
2022/12/06 06:40:11;;;;;;;17.88;9.95;;;;;;;2.37;100.00;99117.34;5077586;28;20563;-81
2022/12/06 06:42:38;;;;;;;16.92;9.75;;;;;;;2.44;100.00;99130.06;5073949;28;20044;-81
2022/12/06 06:45:06;;;;;;;21.55;10.32;;;;;;;2.57;100.00;99137.06;5077003;28;20056;-80
2022/12/06 06:47:32;;;;;;;15.20;9.40;;;;;;;2.59;100.00;99152.03;5078494;28;20414;-80
2022/12/06 06:49:59;;;;;;;21.33;9.70;;;;;;;2.54;100.00;99162.31;5077259;28;20048;-80
2022/12/06 06:52:25;;;;;;;18.70;10.77;;;;;;;2.53;100.00;99159.75;5075875;28;20150;-80
2022/12/06 06:54:54;;;;;;;16.73;9.57;;;;;;;2.55;100.00;99152.44;5074784;28;20044;-80
2022/12/06 06:57:20;;;;;;;24.08;10.70;;;;;;;2.62;100.00;99169.69;5075498;28;20192;-80
2022/12/06 06:59:47;;;;;;;18.75;10.13;;;;;;;2.47;100.00;99143.22;5077440;28;20619;-82
2022/12/06 07:02:16;;;;;;;19.15;10.30;;;;;;;2.54;100.00;99164.16;5072339;28;20732;-79
2022/12/06 07:04:44;;;;;;;19.30;10.90;;;;;;;2.35;100.00;99135.38;5075401;28;20051;-80
2022/12/06 07:07:12;;;;;;;18.70;9.75;;;;;;;2.43;100.00;99146.31;5080596;28;20050;-80
2022/12/06 07:09:39;;;;;;;21.98;10.40;;;;;;;2.41;100.00;99141.09;5079783;28;20543;-81
2022/12/06 07:12:07;;;;;;;16.80;9.48;;;;;;;2.35;100.00;99140.75;5079959;28;20040;-80
2022/12/06 07:14:34;;;;;;;17.90;10.50;;;;;;;2.46;100.00;99146.03;5080229;28;20056;-80
2022/12/06 07:17:01;;;;;;;18.13;10.35;;;;;;;2.39;100.00;99131.44;5080859;28;20430;-80
2022/12/06 07:19:27;;;;;;;15.55;9.18;;;;;;;2.52;100.00;99150.03;5072939;28;20425;-80
2022/12/06 07:21:57;;;;;;;20.00;9.93;;;;;;;2.61;100.00;99158.13;5077595;28;20170;-80
2022/12/06 07:24:24;;;;;;;15.40;9.38;;;;;;;2.51;100.00;99156.38;5080577;28;20048;-81
2022/12/06 07:26:50;;;;;;;15.43;9.43;;;;;;;2.48;100.00;99146.75;5082922;28;20159;-80
2022/12/06 07:29:18;;;;;;;17.27;9.70;;;;;;;2.44;100.00;99138.13;5081508;28;20051;-80
2022/12/06 07:31:45;;;;;;;17.88;9.52;;;;;;;2.52;100.00;99158.09;5081230;28;20052;-80
2022/12/06 07:34:11;;;;;;;17.95;9.40;;;;;;;2.43;100.00;99138.25;5085364;28;20047;-80
2022/12/06 07:36:38;;;;;;;17.30;9.95;;;;;;;2.50;100.00;99146.63;5081134;28;20048;-80
2022/12/06 07:39:05;;;;;;;20.08;10.68;;;;;;;2.57;100.00;99156.69;5090370;28;20510;-80
2022/12/06 07:47:03;;;;;;;22.63;10.50;;;;;;;2.55;100.00;99160.50;5074320;28;20112;-80
2022/12/06 07:49:30;;;;;;;18.50;10.35;;;;;;;2.52;100.00;99152.72;5080199;28;20043;-80
2022/12/06 07:51:58;;;;;;;21.75;10.00;;;;;;;2.56;100.00;99152.31;5089090;28;20052;-80
2022/12/06 07:54:25;;;;;;;18.30;10.30;;;;;;;2.59;100.00;99152.03;5090424;28;20046;-80
2022/12/06 07:56:55;;;;;;;19.88;10.48;;;;;;;2.58;100.00;99154.88;5092536;28;20097;-79
2022/12/06 07:59:21;;;;;;;16.58;9.85;;;;;;;2.59;100.00;99146.69;5075654;28;20052;-80
2022/12/06 08:01:48;;;;;;;15.38;9.35;;;;;;;2.61;100.00;99142.00;5089925;28;20054;-80
2022/12/06 08:04:16;;;;;;;19.08;11.30;;;;;;;2.66;100.00;99146.97;5088314;28;20044;-79
2022/12/06 08:06:42;;;;;;;18.98;10.40;;;;;;;2.61;100.00;99127.75;5090917;28;20048;-79
2022/12/06 08:09:09;;;;;;;17.98;10.45;;;;;;;2.67;100.00;99148.69;5090957;28;20139;-80
2022/12/06 08:11:36;;;;;;;17.15;9.45;;;;;;;2.64;100.00;99138.22;5089160;28;20488;-80
2022/12/06 08:14:03;;;;;;;14.98;9.27;;;;;;;2.80;100.00;99167.22;5090374;28;20442;-80
2022/12/06 08:16:30;;;;;;;14.95;9.75;;;;;;;2.69;100.00;99144.03;5090598;28;20140;-80
2022/12/06 08:18:57;;;;;;;17.45;8.90;;;;;;;2.81;100.00;99164.41;5089546;28;20058;-80
2022/12/06 08:21:25;;;;;;;14.45;9.48;;;;;;;2.74;100.00;99152.53;5090421;28;20418;-80
2022/12/06 08:23:53;;;;;;;18.85;9.95;;;;;;;2.74;100.00;99151.66;5089997;28;20079;-80
2022/12/06 08:26:22;;;;;;;14.23;9.02;;;;;;;2.72;100.00;99130.31;5087494;28;20048;-80
2022/12/06 08:28:49;;;;;;;15.55;9.48;;;;;;;2.79;100.00;99141.38;5085297;28;20052;-79
2022/12/06 08:31:18;;;;;;;14.10;8.70;;;;;;;2.70;100.00;99147.56;5090520;28;20048;-79
2022/12/06 08:33:46;;;;;;;16.53;9.27;;;;;;;2.65;100.00;99139.94;5090004;28;20048;-79
2022/12/06 08:36:15;;;;;;;18.15;9.52;;;;;;;2.76;100.00;99155.91;5088243;28;20422;-79
2022/12/06 08:38:44;;;;;;;18.90;9.23;;;;;;;2.86;100.00;99169.41;5090396;28;20048;-79
2022/12/06 08:43:52;;;;;;;19.48;9.10;;;;;;;2.77;100.00;99146.03;5087454;28;20040;-79
2022/12/06 08:46:18;;;;;;;14.88;8.63;;;;;;;2.85;100.00;99158.78;5089075;28;20062;-80
2022/12/06 08:48:45;;;;;;;17.25;9.80;;;;;;;2.93;100.00;99165.16;5090466;28;20052;-79
2022/12/06 08:51:11;;;;;;;15.55;9.23;;;;;;;2.75;100.00;99150.69;5090242;28;20054;-79
2022/12/06 08:53:38;;;;;;;15.27;8.77;;;;;;;2.81;100.00;99144.78;5089636;28;20040;-79
2022/12/06 08:56:06;;;;;;;13.90;8.85;;;;;;;2.76;100.00;99147.88;5090107;28;20080;-80
2022/12/06 08:58:33;;;;;;;17.60;9.32;;;;;;;2.95;100.00;99170.41;5089997;28;20055;-79
2022/12/06 09:00:59;;;;;;;16.30;9.90;;;;;;;2.94;100.00;99169.56;5093113;28;20487;-79
2022/12/06 09:03:26;;;;;;;17.52;9.10;;;;;;;2.77;100.00;99146.91;5091209;28;20044;-79
2022/12/06 09:05:53;;;;;;;21.30;9.10;;;;;;;2.88;100.00;99159.38;5094017;28;20079;-80
2022/12/06 09:08:19;;;;;;;15.60;8.77;;;;;;;2.91;100.00;99169.84;5092420;28;20052;-80
2022/12/06 09:10:46;;;;;;;16.90;8.75;;;;;;;2.73;100.00;99147.31;5093798;28;20040;-80
2022/12/06 09:13:14;;;;;;;15.88;10.13;;;;;;;2.80;100.00;99151.13;5090796;28;20585;-80
2022/12/06 09:15:40;;;;;;;22.05;9.77;;;;;;;2.92;100.00;99182.28;5093695;28;20483;-80
2022/12/06 09:18:07;;;;;;;16.33;8.70;;;;;;;2.80;100.00;99152.00;5093507;28;20082;-80
2022/12/06 09:20:34;;;;;;;18.48;9.90;;;;;;;2.85;100.00;99156.94;5093956;28;20054;-80
2022/12/06 09:23:00;;;;;;;21.48;9.82;;;;;;;2.83;100.00;99157.09;5092976;28;20197;-79
2022/12/06 09:25:27;;;;;;;16.85;9.50;;;;;;;2.85;100.00;99170.38;5092846;28;20044;-79
2022/12/06 09:27:53;;;;;;;20.00;10.60;;;;;;;2.80;100.00;99154.69;5091764;28;20048;-80
2022/12/06 09:30:21;;;;;;;16.85;8.80;;;;;;;2.83;100.00;99150.84;5093237;28;20048;-79
2022/12/06 09:32:48;;;;;;;19.50;9.63;;;;;;;2.94;100.00;99164.19;5092904;28;20462;-79
2022/12/06 09:35:15;;;;;;;14.00;8.43;;;;;;;2.82;100.00;99151.84;5093201;28;20052;-80
2022/12/06 09:37:41;;;;;;;17.77;9.30;;;;;;;2.96;100.00;99172.09;5093337;28;20044;-80
2022/12/06 09:40:16;;;;;;;16.02;9.02;;;;;;;2.79;100.00;99149.44;5092303;28;20054;-79
2022/12/06 09:43:00;;;;;;;18.30;9.57;;;;;;;2.75;100.00;99145.31;5091500;28;20047;-80
2022/12/06 09:45:46;;;;;;;17.95;9.25;;;;;;;2.89;100.00;99176.31;5089757;28;20048;-79
2022/12/06 09:48:37;;;;;;;17.05;9.77;;;;;;;2.78;100.00;99155.78;5090796;28;20052;-80
2022/12/06 09:51:17;;;;;;;16.27;9.05;;;;;;;2.87;100.00;99163.03;5093146;28;20406;-80
2022/12/06 09:53:56;;;;;;;16.15;8.52;;;;;;;2.85;100.00;99167.69;5092918;28;20070;-79
2022/12/06 09:56:28;;;;;;;21.98;9.23;;;;;;;2.78;100.00;99162.00;5092889;28;20052;-80
2022/12/06 09:59:08;;;;;;;18.65;9.93;;;;;;;2.75;100.00;99146.16;5093174;28;20048;-80
2022/12/06 10:01:49;;;;;;;18.90;9.80;;;;;;;2.67;100.00;99145.16;5090687;28;20062;-80
2022/12/06 10:04:34;;;;;;;19.40;9.90;;;;;;;2.80;100.00;99164.53;5090408;28;20055;-80
2022/12/06 10:07:11;;;;;;;14.90;8.27;;;;;;;2.69;100.00;99148.53;5093048;28;20415;-80
2022/12/06 10:09:46;;;;;;;15.88;8.18;;;;;;;2.65;100.00;99156.03;5092371;28;20541;-79
2022/12/06 10:12:27;;;;;;;14.88;8.20;;;;;;;2.91;100.00;99172.50;5091825;28;20048;-80
2022/12/06 10:15:19;;;;;;;16.95;9.10;;;;;;;2.88;100.00;99161.22;5092679;28;20044;-80
2022/12/06 10:17:59;;;;;;;18.50;8.90;;;;;;;2.92;100.00;99168.84;5090012;28;20054;-79
2022/12/06 10:20:35;;;;;;;14.15;8.18;;;;;;;2.75;100.00;99139.94;5092630;28;20052;-80
2022/12/06 10:23:16;;;;;;;15.02;8.10;;;;;;;2.94;100.00;99166.03;5091850;28;20131;-79
2022/12/06 10:25:57;;;;;;;9.93;6.07;;;;;;;2.80;100.00;99143.94;5092484;28;20059;-80
2022/12/06 10:28:35;;;;;;;12.25;7.00;;;;;;;2.83;100.00;99150.84;5092347;28;20054;-80
2022/12/06 10:31:11;;;;;;;12.40;6.00;;;;;;;2.89;100.00;99149.47;5083587;28;20370;-80
2022/12/06 10:33:51;;;;;;;8.43;4.90;;;;;;;2.84;100.00;99147.19;5083261;28;20044;-80
2022/12/06 10:36:22;;;;;;;;;;;;;;;2.95;100.00;99162.34;5092589;28;20301;-80
2022/12/06 10:38:53;;;;;;;10.70;5.93;;;;;;;2.83;100.00;99132.91;5092141;28;20065;-80
2022/12/06 10:41:25;;;;;;;9.57;5.70;;;;;;;2.81;100.00;99137.56;5091924;28;20475;-80
2022/12/06 10:43:55;;;;;;;11.27;4.55;;;;;;;2.89;100.00;99158.38;5091212;28;20052;-80
2022/12/06 10:49:23;;;;;;;7.80;5.40;;;;;;;2.99;100.00;99145.81;5091792;28;20510;-80
2022/12/06 10:51:57;;;;;;;8.38;4.30;;;;;;;2.92;100.00;99130.38;5086584;28;20431;-79
2022/12/06 10:54:30;;;;;;;6.45;4.18;;;;;;;3.02;100.00;99155.44;5091146;28;20054;-80
2022/12/06 10:57:03;;;;;;;5.80;4.13;;;;;;;2.87;100.00;99140.69;5091998;28;20044;-80
2022/12/06 10:59:37;;;;;;;9.90;4.50;;;;;;;2.88;100.00;99147.78;5090106;28;20067;-80
2022/12/06 11:02:20;;;;;;;9.38;4.80;;;;;;;2.91;100.00;99134.09;5090985;28;20050;-80
2022/12/06 11:04:50;;;;;;;11.85;5.30;;;;;;;2.98;100.00;99130.72;5090817;28;20055;-80
2022/12/06 11:07:23;;;;;;;8.30;4.75;;;;;;;2.89;100.00;99134.22;5083127;28;20059;-80
2022/12/06 11:09:52;;;;;;;8.90;4.88;;;;;;;2.94;100.00;99134.66;5091332;28;20059;-80
2022/12/06 11:12:25;;;;;;;8.80;4.57;;;;;;;2.91;100.00;99132.25;5090777;28;20052;-80
2022/12/06 11:14:55;;;;;;;7.88;5.07;;;;;;;2.97;100.00;99133.53;5089620;28;20475;-80
2022/12/06 11:17:26;;;;;;;7.78;4.50;;;;;;;2.87;100.00;99128.13;5091644;28;20148;-80
2022/12/06 11:20:00;;;;;;;6.88;4.15;;;;;;;2.84;100.00;99117.66;5091541;28;20044;-80
2022/12/06 11:22:37;;;;;;;7.18;4.18;;;;;;;2.97;100.00;99129.00;5090395;28;20471;-80
2022/12/06 11:25:11;;;;;;;7.22;4.32;;;;;;;3.07;100.00;99145.16;5089905;28;20418;-81
2022/12/06 11:27:44;;;;;;;8.77;4.30;;;;;;;3.09;100.00;99145.84;5090987;28;20047;-80
2022/12/06 11:30:15;;;;;;;9.38;5.13;;;;;;;2.99;100.00;99123.50;5091825;28;20054;-80
2022/12/06 11:32:42;;;;;;;7.55;4.18;;;;;;;3.01;100.00;99134.94;5090944;28;20047;-80
2022/12/06 11:35:15;;;;;;;9.50;4.70;;;;;;;2.92;100.00;99116.97;5091093;28;20570;-80
2022/12/06 11:37:43;;;;;;;7.30;4.70;;;;;;;3.07;100.00;99147.84;5091129;28;20475;-80
2022/12/06 11:40:22;;;;;;;5.75;3.63;;;;;;;2.94;100.00;99121.22;5082532;28;20046;-81
2022/12/06 11:42:49;;;;;;;5.10;3.22;;;;;;;2.94;100.00;99134.66;5086871;28;20056;-80
2022/12/06 11:45:20;;;;;;;7.20;3.20;;;;;;;2.96;100.00;99134.50;5088693;28;20048;-80
2022/12/06 11:47:47;;;;;;;5.95;3.05;;;;;;;3.01;100.00;99133.13;5091328;28;20052;-80
2022/12/06 11:50:17;;;;;;;5.93;3.70;;;;;;;2.90;100.00;99118.94;5090667;28;20052;-81
2022/12/06 11:52:49;;;;;;;6.05;3.45;;;;;;;2.93;100.00;99148.22;5090278;28;20133;-80
2022/12/06 11:55:18;;;;;;;6.90;3.42;;;;;;;2.99;100.00;99140.44;5090736;28;20047;-80
2022/12/06 11:57:51;;;;;;;6.50;4.05;;;;;;;2.87;100.00;99114.69;5086099;28;20040;-81
2022/12/06 12:00:20;;;;;;;6.72;3.88;;;;;;;2.96;100.00;99127.28;5088625;28;20054;-80
2022/12/06 12:02:49;;;;;;;5.85;3.80;;;;;;;2.88;100.00;99110.19;5089823;28;20050;-80